Time;durP1;ratioP1;P1;durP2;ratioP2;P2;SDS_P1;SDS_P2;PMS_P1;PMS_P2;Temp;Humidity;BMP_temperature;BMP_pressure;BME280_temperature;BME280_humidity;BME280_pressure;Samples;Min_cycle;Max_cycle;Signal;HPM_P1;HPM_P2
2023/06/27 00:01:31;;;;;;;1.50;1.00;;;18.20;92.20;;;;;;4984440;28;20482;-88
2023/06/27 00:04:00;;;;;;;1.50;1.00;;;18.20;92.90;;;;;;4990106;28;20512;-89
2023/06/27 00:06:26;;;;;;;1.50;0.90;;;18.20;92.60;;;;;;4984967;28;20594;-88
2023/06/27 00:08:53;;;;;;;1.47;1.00;;;18.10;92.60;;;;;;4989199;28;20467;-86
2023/06/27 00:11:20;;;;;;;1.43;0.93;;;18.10;92.90;;;;;;4986500;28;20489;-89
2023/06/27 00:13:50;;;;;;;1.40;0.90;;;18.10;92.40;;;;;;4985593;28;20541;-88
2023/06/27 00:16:17;;;;;;;1.50;1.00;;;18.10;92.20;;;;;;4986460;28;20824;-86
2023/06/27 00:18:47;;;;;;;1.50;0.90;;;18.10;93.10;;;;;;4986759;28;20465;-87
2023/06/27 00:21:15;;;;;;;1.50;0.90;;;18.00;92.80;;;;;;4983394;28;20489;-87
2023/06/27 00:23:43;;;;;;;1.47;1.00;;;18.10;92.40;;;;;;4985963;28;20462;-89
2023/06/27 00:26:12;;;;;;;1.47;0.90;;;18.00;91.50;;;;;;4986600;28;20565;-88
2023/06/27 00:28:39;;;;;;;1.43;0.90;;;18.00;91.70;;;;;;4982492;28;20466;-90
2023/06/27 00:31:07;;;;;;;1.47;0.90;;;18.00;91.80;;;;;;4986463;28;20533;-90
2023/06/27 00:33:34;;;;;;;1.47;0.90;;;18.00;91.80;;;;;;4986664;28;20471;-89
2023/06/27 00:36:01;;;;;;;1.50;1.00;;;18.00;91.40;;;;;;4988263;28;20457;-91
2023/06/27 00:38:27;;;;;;;1.43;1.00;;;18.00;91.50;;;;;;4986659;28;20471;-88
2023/06/27 00:40:54;;;;;;;1.50;0.90;;;18.00;91.40;;;;;;4988018;28;20457;-87
2023/06/27 00:43:21;;;;;;;1.50;0.97;;;18.00;91.70;;;;;;4983650;28;20457;-90
2023/06/27 00:45:48;;;;;;;1.47;0.90;;;18.00;92.00;;;;;;4988974;28;20477;-89
2023/06/27 00:48:16;;;;;;;1.50;0.90;;;18.00;91.70;;;;;;4982863;28;20479;-90
2023/06/27 00:50:44;;;;;;;1.43;0.90;;;18.10;91.90;;;;;;4999463;28;20465;-88
2023/06/27 00:53:12;;;;;;;1.50;0.90;;;18.10;92.50;;;;;;4994917;28;20512;-86
2023/06/27 00:55:41;;;;;;;1.47;0.93;;;18.10;91.90;;;;;;4999369;28;20449;-87
2023/06/27 00:58:08;;;;;;;1.50;0.90;;;18.10;91.60;;;;;;4971527;28;20492;-91
2023/06/27 01:00:35;;;;;;;1.43;0.93;;;18.00;92.20;;;;;;4999239;28;20473;-88
2023/06/27 01:03:03;;;;;;;1.47;0.90;;;18.00;92.40;;;;;;4972301;28;20961;-89
2023/06/27 01:05:32;;;;;;;1.50;0.90;;;18.00;92.90;;;;;;4999557;28;20488;-88
2023/06/27 01:08:06;;;;;;;1.47;0.90;;;18.00;92.30;;;;;;4971524;28;20490;-88
2023/06/27 01:10:38;;;;;;;1.47;0.90;;;18.00;92.30;;;;;;4998764;28;20476;-88
2023/06/27 01:13:11;;;;;;;1.40;0.90;;;18.00;92.90;;;;;;4991880;28;21056;-89
2023/06/27 01:15:39;;;;;;;1.40;0.90;;;18.00;92.60;;;;;;4995415;28;20494;-87
2023/06/27 01:18:09;;;;;;;1.47;1.00;;;17.90;92.00;;;;;;4971681;28;20469;-89
2023/06/27 01:20:37;;;;;;;1.40;0.90;;;17.90;92.20;;;;;;4998410;28;20458;-88
2023/06/27 01:23:09;;;;;;;1.40;0.90;;;17.90;92.20;;;;;;4991228;28;20477;-88
2023/06/27 01:25:38;;;;;;;1.43;0.90;;;17.90;92.60;;;;;;4999878;28;20521;-89
2023/06/27 01:28:05;;;;;;;1.50;0.90;;;17.90;92.70;;;;;;4973176;28;20482;-88
2023/06/27 01:30:34;;;;;;;1.50;0.90;;;17.90;92.80;;;;;;4999738;28;20508;-91
2023/06/27 01:33:14;;;;;;;1.50;0.90;;;17.90;93.20;;;;;;4969480;28;20895;-88
2023/06/27 01:35:48;;;;;;;1.43;0.90;;;17.90;93.20;;;;;;4994427;28;20461;-86
2023/06/27 01:38:33;;;;;;;1.50;1.00;;;17.90;92.70;;;;;;4970321;28;20480;-89
2023/06/27 01:41:03;;;;;;;1.50;1.10;;;17.90;92.90;;;;;;4986590;28;20469;-90
2023/06/27 01:43:30;;;;;;;1.43;1.00;;;17.90;92.40;;;;;;4981831;28;20473;-88
2023/06/27 01:45:58;;;;;;;1.47;1.00;;;17.90;93.00;;;;;;4986337;28;20488;-89
2023/06/27 01:48:26;;;;;;;1.43;0.90;;;17.90;92.50;;;;;;4981740;28;20689;-90
2023/06/27 01:50:55;;;;;;;1.50;1.00;;;17.90;92.60;;;;;;4978444;28;20488;-88
2023/06/27 01:53:21;;;;;;;1.47;1.00;;;17.90;92.60;;;;;;4985246;28;20539;-90
2023/06/27 01:55:48;;;;;;;1.47;0.90;;;17.80;92.30;;;;;;4987136;28;20475;-87
2023/06/27 01:58:16;;;;;;;1.50;0.90;;;17.80;92.00;;;;;;4996381;28;20492;-89
2023/06/27 02:00:43;;;;;;;1.50;0.90;;;17.80;92.40;;;;;;4996377;28;20516;-90
2023/06/27 02:03:10;;;;;;;1.50;0.97;;;17.80;92.60;;;;;;4971072;28;20594;-88
2023/06/27 02:05:37;;;;;;;1.43;0.90;;;17.80;92.50;;;;;;4998087;28;20489;-89
2023/06/27 02:08:04;;;;;;;1.43;0.90;;;17.70;92.80;;;;;;4971365;28;20482;-87
2023/06/27 02:10:31;;;;;;;1.50;1.00;;;17.70;92.60;;;;;;5001485;28;20460;-90
2023/06/27 02:12:57;;;;;;;1.47;0.90;;;17.70;93.50;;;;;;4971107;28;20497;-88
2023/06/27 02:15:26;;;;;;;1.40;0.90;;;17.70;93.00;;;;;;4996886;28;20463;-87
2023/06/27 02:17:52;;;;;;;1.43;0.93;;;17.70;93.00;;;;;;4972118;28;20493;-87
2023/06/27 02:20:19;;;;;;;1.50;0.90;;;17.70;93.10;;;;;;4998834;28;21025;-84
2023/06/27 02:22:46;;;;;;;1.50;0.90;;;17.60;93.80;;;;;;4971940;28;20504;-88
2023/06/27 02:25:13;;;;;;;1.40;0.90;;;17.60;94.30;;;;;;4999690;28;20488;-88
2023/06/27 02:27:39;;;;;;;1.47;0.90;;;17.50;94.20;;;;;;4986373;28;20487;-90
2023/06/27 02:30:08;;;;;;;1.50;1.00;;;17.40;94.70;;;;;;4999232;28;20453;-87
2023/06/27 02:32:36;;;;;;;1.47;0.90;;;17.40;94.50;;;;;;4970883;28;20490;-89
2023/06/27 02:35:02;;;;;;;1.50;1.00;;;17.40;94.60;;;;;;4996852;28;20453;-86
2023/06/27 02:37:29;;;;;;;1.43;0.90;;;17.30;94.70;;;;;;4973645;28;20477;-87
2023/06/27 02:39:57;;;;;;;1.40;0.90;;;17.30;95.30;;;;;;4996385;28;21003;-91
2023/06/27 02:42:24;;;;;;;1.50;0.90;;;17.30;95.90;;;;;;4973734;28;20889;-88
2023/06/27 02:44:50;;;;;;;1.50;0.90;;;17.20;95.40;;;;;;4994559;28;20580;-89
2023/06/27 02:47:18;;;;;;;1.47;0.90;;;17.20;95.50;;;;;;4973566;28;20486;-85
2023/06/27 02:49:46;;;;;;;1.43;0.90;;;17.30;94.70;;;;;;4994086;28;20536;-85
2023/06/27 02:52:13;;;;;;;1.40;0.90;;;17.30;95.00;;;;;;4976003;28;20498;-87
2023/06/27 02:54:40;;;;;;;1.43;1.00;;;17.20;95.20;;;;;;4993318;28;20462;-86
2023/06/27 02:57:07;;;;;;;1.50;0.90;;;17.20;95.50;;;;;;4973779;28;20482;-88
2023/06/27 02:59:34;;;;;;;1.40;0.90;;;17.30;95.20;;;;;;4992749;28;20546;-90
2023/06/27 03:02:00;;;;;;;1.43;0.90;;;17.30;95.60;;;;;;4973933;28;20482;-90
2023/06/27 03:04:28;;;;;;;1.43;0.90;;;17.30;95.30;;;;;;4991175;28;20463;-85
2023/06/27 03:06:56;;;;;;;1.50;0.90;;;17.30;95.20;;;;;;4982585;28;20512;-87
2023/06/27 03:09:23;;;;;;;1.40;0.90;;;17.30;95.60;;;;;;4997854;28;20976;-88
2023/06/27 03:11:49;;;;;;;1.50;0.90;;;17.30;95.80;;;;;;4984148;28;20742;-89
2023/06/27 03:14:18;;;;;;;1.47;1.00;;;17.30;95.70;;;;;;4999586;28;20464;-86
2023/06/27 03:16:45;;;;;;;1.50;0.90;;;17.30;95.70;;;;;;4982189;28;20492;-87
2023/06/27 03:19:11;;;;;;;1.50;1.00;;;17.30;96.50;;;;;;4990985;28;20489;-88
2023/06/27 03:21:40;;;;;;;1.50;1.00;;;17.30;96.40;;;;;;4981359;28;20528;-87
2023/06/27 03:24:08;;;;;;;1.50;0.90;;;17.30;96.40;;;;;;4994449;28;20693;-85
2023/06/27 03:26:35;;;;;;;1.50;0.90;;;17.30;96.60;;;;;;4992799;28;20481;-89
2023/06/27 03:29:02;;;;;;;1.50;1.00;;;17.30;96.00;;;;;;5001162;28;20456;-88
2023/06/27 03:31:29;;;;;;;1.50;1.00;;;17.30;96.10;;;;;;4986305;28;20488;-88
2023/06/27 03:33:57;;;;;;;1.50;1.00;;;17.30;96.00;;;;;;4988848;28;20473;-85
2023/06/27 03:36:24;;;;;;;1.43;0.90;;;17.30;96.00;;;;;;4984789;28;20840;-87
2023/06/27 03:38:51;;;;;;;1.50;0.90;;;17.30;96.30;;;;;;4987198;28;20492;-86
2023/06/27 03:41:19;;;;;;;1.50;1.00;;;17.30;96.10;;;;;;4988057;28;20486;-88
2023/06/27 03:43:46;;;;;;;1.50;0.90;;;17.30;96.20;;;;;;4985635;28;20453;-83
2023/06/27 03:46:14;;;;;;;1.50;1.00;;;17.30;95.90;;;;;;4989544;28;20481;-84
2023/06/27 03:48:41;;;;;;;1.47;1.00;;;17.30;96.60;;;;;;4989780;28;20453;-83
2023/06/27 03:51:08;;;;;;;1.43;0.90;;;17.30;96.00;;;;;;4992836;28;20644;-84
2023/06/27 03:53:34;;;;;;;1.50;0.90;;;17.30;95.80;;;;;;5004204;28;20465;-84
2023/06/27 03:56:02;;;;;;;1.50;0.90;;;17.30;96.00;;;;;;4991202;28;20745;-84
2023/06/27 03:58:31;;;;;;;1.43;1.00;;;17.20;96.90;;;;;;4987675;28;20525;-84
2023/06/27 04:00:58;;;;;;;1.50;1.10;;;17.20;96.70;;;;;;4991825;28;20489;-84
2023/06/27 04:03:25;;;;;;;1.50;1.10;;;17.20;97.60;;;;;;4987054;28;20500;-85
2023/06/27 04:05:52;;;;;;;1.50;1.00;;;17.10;97.80;;;;;;4991634;28;20749;-86
2023/06/27 04:08:18;;;;;;;1.47;0.90;;;17.00;98.20;;;;;;4987694;28;20461;-84
2023/06/27 04:10:45;;;;;;;1.50;0.90;;;16.90;98.20;;;;;;5002135;28;20457;-83
2023/06/27 04:13:12;;;;;;;1.50;1.00;;;16.90;98.20;;;;;;4978167;28;20491;-85
2023/06/27 04:15:40;;;;;;;1.40;0.90;;;16.90;97.80;;;;;;5004413;28;20462;-84
2023/06/27 04:18:07;;;;;;;1.50;0.90;;;16.90;98.20;;;;;;4995708;28;20511;-84
2023/06/27 04:20:34;;;;;;;1.47;0.90;;;17.00;98.10;;;;;;5003416;28;20463;-85
2023/06/27 04:23:01;;;;;;;1.43;0.90;;;17.00;97.90;;;;;;4972844;28;20497;-85
2023/06/27 04:25:31;;;;;;;1.47;0.97;;;17.00;98.20;;;;;;4997481;28;20562;-84
2023/06/27 04:27:58;;;;;;;1.43;0.90;;;17.10;98.20;;;;;;4976456;28;20488;-85
2023/06/27 04:30:25;;;;;;;1.50;0.90;;;17.10;98.20;;;;;;4998511;28;20461;-84
2023/06/27 04:32:53;;;;;;;1.50;1.00;;;17.10;97.80;;;;;;4995882;28;20485;-84
2023/06/27 04:35:20;;;;;;;1.50;0.90;;;17.20;97.80;;;;;;5000299;28;20458;-84
2023/06/27 04:37:47;;;;;;;1.40;1.00;;;17.20;98.00;;;;;;4984043;28;20478;-85
2023/06/27 04:40:15;;;;;;;1.47;0.90;;;17.20;97.80;;;;;;4990733;28;20976;-84
2023/06/27 04:42:45;;;;;;;1.50;0.90;;;17.30;97.70;;;;;;4975868;28;20526;-86
2023/06/27 04:45:12;;;;;;;1.43;1.00;;;17.30;97.70;;;;;;4986801;28;21441;-85
2023/06/27 04:47:39;;;;;;;1.50;1.00;;;17.30;97.70;;;;;;4979470;28;20565;-84
2023/06/27 04:50:07;;;;;;;1.47;0.90;;;17.30;97.50;;;;;;4989728;28;20524;-84
2023/06/27 04:52:34;;;;;;;1.47;0.90;;;17.30;97.80;;;;;;4979111;28;20501;-85
2023/06/27 04:55:01;;;;;;;1.50;0.90;;;17.30;97.90;;;;;;4997690;28;20457;-84
2023/06/27 04:57:28;;;;;;;1.50;0.90;;;17.40;97.90;;;;;;4988330;28;20507;-84
2023/06/27 04:59:55;;;;;;;1.50;0.90;;;17.40;98.00;;;;;;5000006;28;20471;-84
2023/06/27 05:02:21;;;;;;;1.40;0.90;;;17.40;98.20;;;;;;4980018;28;20832;-84
2023/06/27 05:04:49;;;;;;;1.50;0.90;;;17.30;98.20;;;;;;4991437;28;20798;-85
2023/06/27 05:07:17;;;;;;;1.50;0.90;;;17.30;98.20;;;;;;4982059;28;20995;-85
2023/06/27 05:09:44;;;;;;;1.40;0.90;;;17.40;98.20;;;;;;4996030;28;20511;-85
2023/06/27 05:12:11;;;;;;;1.60;1.30;;;17.40;98.20;;;;;;4981127;28;20492;-85
2023/06/27 05:14:38;;;;;;;1.50;0.90;;;17.50;98.20;;;;;;4997880;28;20595;-81
2023/06/27 05:17:08;;;;;;;1.40;0.90;;;17.50;98.20;;;;;;4983245;28;20477;-82
2023/06/27 05:19:34;;;;;;;1.47;1.00;;;17.60;98.20;;;;;;4989260;28;20536;-85
2023/06/27 05:22:02;;;;;;;1.50;0.90;;;17.60;98.20;;;;;;4979071;28;20616;-84
2023/06/27 05:24:30;;;;;;;1.50;0.90;;;17.70;98.20;;;;;;4991152;28;20469;-83
2023/06/27 05:26:57;;;;;;;1.50;1.00;;;17.80;98.20;;;;;;4982936;28;20495;-85
2023/06/27 05:29:24;;;;;;;1.50;0.90;;;17.80;98.20;;;;;;4988671;28;20466;-85
2023/06/27 05:31:50;;;;;;;1.50;0.90;;;17.90;98.20;;;;;;4978366;28;20833;-85
2023/06/27 05:34:17;;;;;;;1.50;0.90;;;17.90;98.20;;;;;;4988715;28;20471;-83
2023/06/27 05:36:44;;;;;;;1.40;0.90;;;17.90;98.20;;;;;;4979589;28;20476;-85
2023/06/27 05:39:11;;;;;;;1.43;1.00;;;18.00;98.20;;;;;;4991468;28;20473;-84
2023/06/27 05:41:39;;;;;;;1.50;0.90;;;18.10;98.20;;;;;;4979252;28;20544;-84
2023/06/27 05:44:07;;;;;;;1.50;1.00;;;18.30;98.20;;;;;;4987303;28;20498;-84
2023/06/27 05:46:38;;;;;;;1.40;0.90;;;18.40;98.20;;;;;;4979986;28;20575;-84
2023/06/27 05:49:05;;;;;;;1.50;0.90;;;18.40;98.20;;;;;;4995825;28;20518;-84
2023/06/27 05:51:32;;;;;;;1.50;0.90;;;18.50;97.50;;;;;;4984102;28;20547;-85
2023/06/27 05:54:08;;;;;;;1.40;0.90;;;18.70;96.90;;;;;;4993969;28;20469;-85
2023/06/27 05:56:34;;;;;;;1.50;0.90;;;18.70;97.00;;;;;;4972797;28;20524;-84
2023/06/27 05:59:02;;;;;;;1.43;0.90;;;18.80;96.70;;;;;;4982875;28;20461;-84
2023/06/27 06:01:29;;;;;;;1.50;0.90;;;18.80;96.30;;;;;;4981110;28;20881;-85
2023/06/27 06:03:59;;;;;;;1.43;0.90;;;18.90;96.90;;;;;;4997062;28;20463;-85
2023/06/27 06:06:26;;;;;;;1.40;0.90;;;19.00;96.10;;;;;;4980881;28;20548;-84
2023/06/27 06:08:53;;;;;;;2.17;1.97;;;19.00;96.30;;;;;;4995009;28;20469;-85
2023/06/27 06:11:20;;;;;;;1.50;0.90;;;19.10;96.90;;;;;;4987805;28;20939;-85
2023/06/27 06:13:47;;;;;;;1.50;0.90;;;19.30;96.50;;;;;;4993983;28;20460;-86
2023/06/27 06:16:15;;;;;;;1.40;0.90;;;19.40;96.10;;;;;;4976062;28;20480;-84
2023/06/27 06:18:42;;;;;;;1.50;1.00;;;19.70;96.60;;;;;;4990397;28;20552;-84
2023/06/27 06:21:10;;;;;;;1.50;1.00;;;20.00;95.90;;;;;;4984662;28;20476;-85
2023/06/27 06:23:37;;;;;;;1.47;0.90;;;20.20;95.20;;;;;;4988957;28;20469;-84
2023/06/27 06:26:04;;;;;;;1.50;0.90;;;20.50;94.00;;;;;;4976780;28;20490;-85
2023/06/27 06:28:31;;;;;;;1.50;0.90;;;20.60;93.70;;;;;;4987520;28;20524;-85
2023/06/27 06:30:58;;;;;;;5.93;1.57;;;20.90;93.00;;;;;;4981742;28;20460;-85
2023/06/27 06:33:27;;;;;;;1.50;0.90;;;21.10;93.00;;;;;;4996112;28;20480;-85
2023/06/27 06:35:54;;;;;;;1.50;0.90;;;21.40;92.20;;;;;;4977962;28;20551;-85
2023/06/27 06:38:21;;;;;;;1.50;0.90;;;21.60;92.20;;;;;;4975728;28;20465;-84
2023/06/27 06:40:50;;;;;;;1.50;0.90;;;21.80;90.50;;;;;;4991512;28;20468;-85
2023/06/27 06:43:20;;;;;;;1.50;0.90;;;21.90;89.20;;;;;;4983517;28;20472;-84
2023/06/27 06:45:50;;;;;;;1.50;0.90;;;22.10;89.50;;;;;;4999860;28;20489;-84
2023/06/27 06:48:16;;;;;;;1.50;0.90;;;22.20;88.90;;;;;;4965167;28;20508;-86
2023/06/27 06:50:45;;;;;;;1.50;0.90;;;22.30;88.90;;;;;;4993139;28;20568;-86
2023/06/27 06:53:14;;;;;;;1.47;0.90;;;22.40;88.70;;;;;;4955230;28;20560;-82
2023/06/27 06:59:01;;;;;;;1.50;0.90;;;22.70;89.10;;;;;;4949930;28;20476;-86
2023/06/27 07:05:00;;;;;;;1.43;0.80;;;23.20;86.10;;;;;;4911876;29;20470;-88
2023/06/27 07:28:42;;;;;;;1.50;0.87;;;24.60;84.10;;;;;;4875885;29;21113;-88
2023/06/27 07:31:58;;;;;;;1.47;0.90;;;24.70;82.60;;;;;;4990187;28;20918;-86
2023/06/27 07:34:25;;;;;;;1.50;0.90;;;24.90;82.60;;;;;;4988693;28;20967;-86
2023/06/27 07:43:32;;;;;;;1.47;0.90;;;25.30;82.10;;;;;;4966129;28;20487;-88
2023/06/27 07:46:09;;;;;;;1.47;0.83;;;25.40;81.10;;;;;;4980102;28;20933;-88
2023/06/27 07:48:54;;;;;;;1.47;0.80;;;25.60;80.90;;;;;;4991025;28;20495;-89
2023/06/27 07:51:21;;;;;;;1.50;0.80;;;25.80;81.40;;;;;;4976377;28;20509;-88
2023/06/27 07:54:00;;;;;;;1.40;0.80;;;26.00;80.00;;;;;;4990601;28;20509;-86
2023/06/27 07:56:36;;;;;;;1.40;0.80;;;26.10;79.90;;;;;;4972531;28;20472;-88
2023/06/27 07:59:42;;;;;;;1.50;0.80;;;26.30;79.10;;;;;;4978199;28;20468;-87
2023/06/27 08:02:40;;;;;;;1.50;0.80;;;26.30;79.00;;;;;;4967114;28;20573;-87
2023/06/27 08:05:11;;;;;;;1.47;0.80;;;26.30;79.50;;;;;;4987686;28;20468;-83
2023/06/27 08:07:41;;;;;;;1.50;0.90;;;26.30;78.80;;;;;;4975015;28;20484;-88
2023/06/27 08:10:08;;;;;;;1.43;0.83;;;26.40;78.20;;;;;;4987421;28;20460;-86
2023/06/27 08:12:35;;;;;;;1.50;0.83;;;26.50;77.70;;;;;;4978255;28;20577;-87
2023/06/27 08:15:05;;;;;;;1.50;0.90;;;26.70;77.80;;;;;;4987064;28;20479;-85
2023/06/27 08:17:48;;;;;;;1.50;0.80;;;26.80;78.30;;;;;;4971403;28;20500;-86
2023/06/27 08:21:01;;;;;;;1.50;0.80;;;26.90;76.40;;;;;;4989254;28;20948;-88
2023/06/27 08:23:49;;;;;;;1.43;0.80;;;26.90;77.80;;;;;;4963873;28;20852;-87
2023/06/27 08:26:17;;;;;;;1.47;0.80;;;26.90;77.30;;;;;;4974877;28;20488;-87
2023/06/27 08:28:57;;;;;;;1.50;1.00;;;27.00;76.10;;;;;;4988670;28;20955;-85
2023/06/27 08:31:59;;;;;;;1.47;0.80;;;27.00;76.50;;;;;;4970917;28;20556;-86
2023/06/27 08:34:45;;;;;;;1.50;0.80;;;27.00;75.70;;;;;;4973114;28;20751;-87
2023/06/27 08:40:09;;;;;;;2.43;1.40;;;26.90;76.20;;;;;;4984916;28;20555;-87
2023/06/27 08:46:25;;;;;;;1.50;0.90;;;26.90;75.70;;;;;;4984403;28;20476;-88
2023/06/27 08:52:27;;;;;;;;;;;;;;;;;;;;;
2023/06/27 09:04:41;;;;;;;1.40;0.80;;;26.90;75.50;;;;;;4849052;29;20467;-91
2023/06/27 09:07:10;;;;;;;1.43;0.90;;;27.10;75.50;;;;;;4965540;28;21050;-88
2023/06/27 09:09:42;;;;;;;1.43;0.80;;;27.30;73.90;;;;;;4982468;28;20461;-87
2023/06/27 09:12:30;;;;;;;1.50;0.90;;;27.20;73.60;;;;;;4963918;28;20913;-88
2023/06/27 09:15:05;;;;;;;1.50;0.90;;;27.00;73.60;;;;;;4988241;28;20520;-88
2023/06/27 09:17:58;;;;;;;1.43;0.80;;;26.90;74.70;;;;;;4977222;28;20480;-87
2023/06/27 09:23:18;;;;;;;1.47;0.80;;;26.90;73.00;;;;;;4939745;28;20470;-86
2023/06/27 09:25:49;;;;;;;1.50;0.80;;;27.00;73.90;;;;;;4988261;28;20772;-86
2023/06/27 09:28:18;;;;;;;1.47;0.80;;;27.20;73.50;;;;;;4988091;28;20911;-86
2023/06/27 09:31:02;;;;;;;1.50;0.80;;;27.30;72.90;;;;;;4989501;28;20856;-89
2023/06/27 09:33:29;;;;;;;1.40;0.80;;;27.30;73.00;;;;;;4960056;28;20572;-88
2023/06/27 09:36:01;;;;;;;1.50;0.80;;;27.20;72.30;;;;;;4986894;28;20548;-88
2023/06/27 09:39:07;;;;;;;1.40;0.80;;;27.10;71.80;;;;;;4984905;28;20508;-86
2023/06/27 09:41:42;;;;;;;1.40;0.80;;;26.90;72.70;;;;;;4961095;28;20576;-87
2023/06/27 09:44:27;;;;;;;1.47;0.80;;;26.90;72.70;;;;;;4981602;28;20491;-88
2023/06/27 09:47:08;;;;;;;1.43;0.80;;;27.00;73.10;;;;;;4965866;28;21010;-86
2023/06/27 09:55:35;;;;;;;1.40;0.80;;;27.00;71.70;;;;;;4989466;28;20471;-89
2023/06/27 09:58:55;;;;;;;1.47;0.80;;;26.90;73.00;;;;;;4958797;28;20489;-87
2023/06/27 10:04:16;;;;;;;1.40;0.80;;;27.20;72.40;;;;;;4978294;28;20464;-88
2023/06/27 10:09:30;;;;;;;1.40;0.80;;;27.30;70.80;;;;;;4987955;28;20469;-88
2023/06/27 10:12:41;;;;;;;1.50;0.90;;;27.30;71.40;;;;;;4977241;28;20488;-88
2023/06/27 10:15:20;;;;;;;1.47;0.80;;;27.40;71.10;;;;;;4962815;28;20971;-89
2023/06/27 10:18:38;;;;;;;1.47;0.80;;;27.50;71.60;;;;;;4964275;28;20625;-88
2023/06/27 10:21:49;;;;;;;1.40;0.80;;;27.60;71.30;;;;;;4965049;28;20538;-87
2023/06/27 10:24:33;;;;;;;1.40;0.80;;;27.50;70.60;;;;;;4983866;28;20465;-86
2023/06/27 10:27:19;;;;;;;;;;;;;;;;;;;;;
2023/06/27 10:33:11;;;;;;;1.40;0.80;;;27.00;70.90;;;;;;4909757;29;20491;-86
2023/06/27 10:36:00;;;;;;;1.40;0.80;;;26.80;70.90;;;;;;4965709;28;20472;-82
2023/06/27 10:45:11;;;;;;;1.43;0.80;;;27.10;71.20;;;;;;4906340;29;20467;-89
2023/06/27 10:47:51;;;;;;;;;;;;;;;;;;;;;
2023/06/27 10:50:32;;;;;;;1.40;0.80;;;27.10;68.60;;;;;;4987146;28;20547;-89
2023/06/27 10:53:21;;;;;;;1.50;0.80;;;26.80;68.80;;;;;;4963052;28;20553;-88
2023/06/27 10:58:44;;;;;;;1.50;0.80;;;26.60;69.90;;;;;;4973580;28;20465;-88
2023/06/27 11:07:22;;;;;;;1.47;0.80;;;26.70;69.50;;;;;;4975618;28;21014;-86
2023/06/27 11:10:00;;;;;;;1.40;0.80;;;26.80;69.90;;;;;;4991925;28;20488;-87
2023/06/27 11:13:04;;;;;;;1.40;0.80;;;27.10;70.10;;;;;;4960522;28;20946;-90
2023/06/27 11:15:31;;;;;;;1.50;0.80;;;27.30;69.60;;;;;;4942651;28;20553;-88
2023/06/27 11:18:16;;;;;;;1.43;0.80;;;27.50;68.90;;;;;;4970973;28;21088;-90
2023/06/27 11:21:19;;;;;;;;;;;;;;;;;;;;;
2023/06/27 11:26:43;;;;;;;1.43;0.80;;;27.60;67.00;;;;;;4966831;28;20488;-87
2023/06/27 11:29:23;;;;;;;1.43;0.80;;;27.40;67.40;;;;;;4979771;28;20480;-87
2023/06/27 11:32:07;;;;;;;1.43;0.80;;;27.30;67.40;;;;;;4968742;28;20492;-87
2023/06/27 11:44:24;;;;;;;1.43;0.80;;;27.30;68.70;;;;;;4983778;28;21204;-88
2023/06/27 11:47:00;;;;;;;1.47;0.80;;;27.20;68.60;;;;;;4970852;28;20492;-87
2023/06/27 11:49:52;;;;;;;1.40;0.80;;;27.00;68.40;;;;;;4979819;28;21128;-86
2023/06/27 11:52:19;;;;;;;1.43;0.90;;;26.70;69.20;;;;;;4947041;28;20489;-86
2023/06/27 11:55:01;;;;;;;1.50;0.80;;;26.50;69.10;;;;;;4981820;28;20568;-88
2023/06/27 11:57:47;;;;;;;1.40;0.80;;;26.40;69.50;;;;;;4962509;28;20477;-87
2023/06/27 12:00:17;;;;;;;1.50;1.00;;;26.30;69.60;;;;;;4986006;28;20468;-85
2023/06/27 12:03:04;;;;;;;1.50;0.80;;;26.30;70.10;;;;;;4972324;28;20542;-86
2023/06/27 12:06:01;;;;;;;1.50;0.80;;;26.40;69.90;;;;;;4986359;28;20469;-87
2023/06/27 12:14:06;;;;;;;1.43;0.80;;;26.80;68.90;;;;;;4929849;28;20469;-86
2023/06/27 12:16:36;;;;;;;1.40;0.80;;;27.00;69.40;;;;;;4932817;28;20483;-88
2023/06/27 12:19:18;;;;;;;1.50;0.80;;;26.90;69.30;;;;;;4944821;28;20968;-88
2023/06/27 12:24:34;;;;;;;1.40;0.80;;;27.10;68.80;;;;;;4981148;28;20460;-85
2023/06/27 12:30:05;;;;;;;1.40;0.80;;;27.00;68.60;;;;;;4975247;28;20515;-87
2023/06/27 12:32:53;;;;;;;1.40;0.80;;;27.00;67.90;;;;;;4974816;28;20615;-87
2023/06/27 12:35:42;;;;;;;1.50;0.80;;;26.90;68.60;;;;;;4987890;28;20464;-90
2023/06/27 12:38:21;;;;;;;1.40;0.83;;;26.80;68.80;;;;;;4963524;28;20506;-86
2023/06/27 12:40:52;;;;;;;1.50;0.80;;;26.80;69.40;;;;;;4978006;28;20462;-89
2023/06/27 12:43:30;;;;;;;1.40;0.80;;;26.50;69.80;;;;;;4972598;28;20896;-89
2023/06/27 12:46:07;;;;;;;1.50;0.80;;;26.40;70.10;;;;;;4975667;28;20539;-87
2023/06/27 12:49:04;;;;;;;1.50;0.80;;;26.30;70.30;;;;;;4977613;28;20618;-88
2023/06/27 12:54:42;;;;;;;1.50;0.80;;;25.70;71.80;;;;;;4962292;28;21026;-85
2023/06/27 13:00:11;;;;;;;1.50;0.80;;;25.50;71.40;;;;;;4976119;28;20580;-85
2023/06/27 13:02:48;;;;;;;1.43;0.80;;;25.40;72.50;;;;;;4975111;28;20493;-86
2023/06/27 13:05:33;;;;;;;1.50;1.00;;;25.20;72.80;;;;;;4983397;28;20465;-85
2023/06/27 13:08:09;;;;;;;1.50;0.83;;;25.20;73.20;;;;;;4973063;28;20624;-87
2023/06/27 13:10:42;;;;;;;1.50;1.00;;;25.10;72.90;;;;;;4985500;28;20464;-85
2023/06/27 13:13:28;;;;;;;1.47;0.80;;;25.00;73.60;;;;;;4958029;28;20505;-86
2023/06/27 13:16:17;;;;;;;1.50;0.80;;;24.90;73.90;;;;;;4979589;28;20453;-86
2023/06/27 13:19:02;;;;;;;1.43;0.80;;;25.00;73.90;;;;;;4978747;28;20551;-87
2023/06/27 13:24:25;;;;;;;1.47;0.83;;;26.10;73.40;;;;;;4981978;28;20898;-86
2023/06/27 13:26:57;;;;;;;1.50;0.80;;;26.90;72.00;;;;;;4973456;28;20499;-86
2023/06/27 13:29:33;;;;;;;1.47;0.80;;;27.50;69.70;;;;;;4986612;28;20509;-86
2023/06/27 13:32:33;;;;;;;1.47;0.80;;;27.90;69.40;;;;;;4975793;28;20488;-87
2023/06/27 13:38:31;;;;;;;1.50;0.80;;;28.50;66.10;;;;;;4932781;29;20474;-86
2023/06/27 13:42:01;;;;;;;1.43;0.80;;;28.50;65.40;;;;;;4963836;28;20480;-88
2023/06/27 13:44:47;;;;;;;1.47;0.80;;;28.20;65.70;;;;;;4965271;28;20478;-86
2023/06/27 13:50:16;;;;;;;1.43;0.80;;;28.00;65.60;;;;;;4962491;28;20489;-87
2023/06/27 13:53:33;;;;;;;1.43;0.80;;;27.80;67.30;;;;;;4954816;28;21086;-87
2023/06/27 13:56:36;;;;;;;1.47;0.90;;;27.70;67.10;;;;;;4969229;28;20465;-87
2023/06/27 13:59:25;;;;;;;1.43;0.87;;;27.50;66.50;;;;;;4983777;28;20476;-87
2023/06/27 14:02:02;;;;;;;1.50;0.80;;;27.30;66.20;;;;;;5120464;23;20971;-86
2023/06/27 14:05:32;;;;;;;1.43;0.80;;;27.10;67.10;;;;;;4983777;28;20568;-86
2023/06/27 14:08:35;;;;;;;1.40;0.80;;;27.10;67.40;;;;;;4929562;28;20493;-88
2023/06/27 14:14:32;;;;;;;;;;;;;;;;;;;;;
2023/06/27 14:24:29;;;;;;;1.50;0.80;;;27.70;64.60;;;;;;5591932;23;20551;-87
2023/06/27 14:30:39;;;;;;;1.50;0.90;;;27.60;63.70;;;;;;4951204;28;20487;-88
2023/06/27 15:08:51;;;;;;;1.47;0.80;;;26.60;65.40;;;;;;4838898;29;20529;-88
2023/06/27 15:32:16;;;;;;;;;;;;;;;;;;;;;
2023/06/27 15:34:48;;;;;;;1.40;0.80;;;26.30;65.80;;;;;;4922904;28;21300;-91
2023/06/27 15:43:57;;;;;;;1.47;0.80;;;26.50;66.20;;;;;;4915270;29;20571;-88
2023/06/27 15:46:29;;;;;;;1.47;0.97;;;26.40;65.20;;;;;;4926181;29;20488;-89
2023/06/27 16:01:22;;;;;;;1.40;0.80;;;25.80;67.40;;;;;;4931221;28;20424;-84
2023/06/27 16:03:54;;;;;;;1.40;0.80;;;25.80;68.20;;;;;;4964668;28;20945;-88
2023/06/27 16:06:24;;;;;;;1.50;0.80;;;25.60;67.80;;;;;;4959754;28;20474;-86
2023/06/27 16:08:56;;;;;;;1.50;0.90;;;25.60;68.90;;;;;;4956290;28;20489;-86
2023/06/27 16:11:46;;;;;;;1.47;0.80;;;25.70;68.00;;;;;;4956268;28;20490;-89
2023/06/27 16:17:51;;;;;;;1.50;0.87;;;25.30;68.10;;;;;;4951221;28;20598;-89
2023/06/27 16:32:30;;;;;;;1.47;0.80;;;25.10;68.20;;;;;;4793751;29;20495;-85
2023/06/27 16:46:39;;;;;;;1.47;0.87;;;25.40;68.70;;;;;;4673685;26;20523;-89
2023/06/27 16:49:37;;;;;;;1.50;0.90;;;25.50;68.60;;;;;;4975161;28;20484;-88
2023/06/27 17:06:56;;;;;;;1.43;0.90;;;25.50;68.40;;;;;;5122018;22;20515;-90
2023/06/27 17:09:57;;;;;;;1.47;0.83;;;25.40;68.40;;;;;;4963662;28;20566;-91
2023/06/27 17:12:45;;;;;;;1.50;0.90;;;25.40;68.50;;;;;;4907840;29;20484;-90
2023/06/27 17:15:13;;;;;;;1.43;0.80;;;25.20;69.00;;;;;;4916446;29;20658;-88
2023/06/27 17:24:08;;;;;;;1.43;0.83;;;24.90;69.80;;;;;;4893167;29;20506;-88
2023/06/27 17:29:59;;;;;;;1.47;0.90;;;24.80;69.80;;;;;;4912067;29;20547;-90
2023/06/27 17:39:28;;;;;;;1.50;0.90;;;24.40;71.10;;;;;;4876187;29;20475;-90
2023/06/27 17:56:09;;;;;;;1.43;0.90;;;24.00;71.80;;;;;;4898045;29;20945;-88
2023/06/27 17:58:37;;;;;;;1.47;0.90;;;23.90;71.50;;;;;;4917360;28;20478;-88
2023/06/27 18:01:33;;;;;;;1.47;0.80;;;23.90;71.30;;;;;;4965301;28;20468;-91
2023/06/27 18:13:23;;;;;;;1.47;0.90;;;23.50;72.40;;;;;;4967720;28;21038;-90
2023/06/27 18:16:31;;;;;;;1.47;0.90;;;23.50;72.20;;;;;;4929479;29;20499;-88
2023/06/27 18:27:48;;;;;;;1.43;0.90;;;23.20;72.80;;;;;;4888653;29;20468;-84
2023/06/27 18:30:49;;;;;;;1.43;0.90;;;23.20;73.30;;;;;;4953460;28;20503;-84
2023/06/27 18:33:31;;;;;;;1.40;0.87;;;23.10;73.60;;;;;;4961130;28;20477;-88
2023/06/27 18:36:03;;;;;;;1.47;0.90;;;23.10;73.30;;;;;;4973906;28;20498;-84